Puget — AEQW — position and weather

sailwx.info

Track history (hours):
 
Tides and Currents Weather Stations Pressure Air Temp Water Temp Dewpoint Dewpoint Depression Visibility Wind Speed Wind Dir Waves Ship Positions

Puget

Last reported at 2016-Apr-28 20:31 UTC. Time now 2016-Apr-30 16:53 UTC.
Position N 47°40' W 122°24'.

Length 20 m; draft 0.2 m.

Type: Ship. MMSI: 369970510.

Date/timePositionNaut miles runAvg speedWind from/ knotsBaromVisibWave heightAir tempDewpointWater temp
2016-Apr-28 20:31N 47°40' W 122°24'0 0.2
2016-Apr-28 19:33N 47°40' W 122°23'1 0.5
2016-Apr-28 18:31N 47°40' W 122°24'6 5.3
2016-Apr-28 17:21N 47°35' W 122°28'16 0.8
2016-Apr-27 22:33N 47°19' W 122°27'0 0.0
2016-Apr-26 20:33N 47°18' W 122°27'6 6.2
2016-Apr-26 19:33N 47°23' W 122°22'7 6.5
2016-Apr-26 18:33N 47°29' W 122°24'7 6.6
2016-Apr-26 17:33N 47°36' W 122°23'1 1.1
2016-Apr-26 16:17N 47°37' W 122°21'5 6.6
2016-Apr-26 15:33N 47°40' W 122°26'2 0.1
2016-Apr-25 21:33N 47°40' W 122°23'2 2.4
2016-Apr-25 20:33N 47°42' W 122°26'4 0.9
2016-Apr-25 16:33N 47°43' W 122°30'6 5.8
2016-Apr-25 15:33N 47°40' W 122°23'  
2016-Apr-20 21:33N 47°40' W 122°24'0 0.1
2016-Apr-20 20:33N 47°40' W 122°24'0 0.0
2016-Apr-18 22:34N 47°40' W 122°23'2 2.3
2016-Apr-18 21:33N 47°39' W 122°27'5 5.1
2016-Apr-18 20:31N 47°35' W 122°21'  
Track history (hours):
 
Tides and Currents Weather Stations Pressure Air Temp Water Temp Dewpoint Dewpoint Depression Visibility Wind Speed Wind Dir Waves Ship Positions

Puget

Last reported at 2016-Apr-28 20:31 UTC. Time now 2016-Apr-30 16:53 UTC.
Position N 47°40' W 122°24'.

Length 20 m; draft 0.2 m.

Type: Ship. MMSI: 369970510.

Date/timePositionNaut miles runAvg speedWind from/ knotsBaromVisibWave heightAir tempDewpointWater temp
2016-Apr-28 20:31N 47°40' W 122°24'0 0.2
2016-Apr-28 19:33N 47°40' W 122°23'1 0.5
2016-Apr-28 18:31N 47°40' W 122°24'6 5.3
2016-Apr-28 17:21N 47°35' W 122°28'16 0.8
2016-Apr-27 22:33N 47°19' W 122°27'0 0.0
2016-Apr-26 20:33N 47°18' W 122°27'6 6.2
2016-Apr-26 19:33N 47°23' W 122°22'7 6.5
2016-Apr-26 18:33N 47°29' W 122°24'7 6.6
2016-Apr-26 17:33N 47°36' W 122°23'1 1.1
2016-Apr-26 16:17N 47°37' W 122°21'5 6.6
2016-Apr-26 15:33N 47°40' W 122°26'2 0.1
2016-Apr-25 21:33N 47°40' W 122°23'2 2.4
2016-Apr-25 20:33N 47°42' W 122°26'4 0.9
2016-Apr-25 16:33N 47°43' W 122°30'6 5.8
2016-Apr-25 15:33N 47°40' W 122°23'  
2016-Apr-20 21:33N 47°40' W 122°24'0 0.1
2016-Apr-20 20:33N 47°40' W 122°24'0 0.0
2016-Apr-18 22:34N 47°40' W 122°23'2 2.3
2016-Apr-18 21:33N 47°39' W 122°27'5 5.1
2016-Apr-18 20:31N 47°35' W 122°21'  

Dump ship's entire track history